Nissho Maru No.18 — JL6369 — position and weather

sailwx.info

Track history (hours):
 
Tides and Currents Weather Stations Pressure Air Temp Water Temp Dewpoint Dewpoint Depression Visibility Wind Speed Wind Dir Waves Ship Positions

Nissho Maru No.18

Last reported at 2014-Nov-23 06:32 UTC. Time now 2014-Nov-23 14:41 UTC.
Position N 34°12' E 134°59'.

Length 65 m; draft 4 m.

Type: Tanker. MMSI: 431500465.

Date/timePositionNaut miles runAvg speedWind from/ knotsBaromVisibWave heightAir tempDewpointWater temp
2014-Nov-23 06:32N 34°12' E 134°59'1111.2
2014-Nov-23 05:32N 34°23' E 135°02'1111.2
2014-Nov-23 04:33N 34°30' E 135°12'1010.4
2014-Nov-23 03:33N 34°36' E 135°22'3 3.3
2014-Nov-23 02:33N 34°34' E 135°26'0 0.0
2014-Nov-23 01:33N 34°34' E 135°26'0 0.0
2014-Nov-23 00:33N 34°34' E 135°26'0 0.0
2014-Nov-22 23:33N 34°34' E 135°26'3 3.0
2014-Nov-22 22:32N 34°36' E 135°23'1 0.3
2014-Nov-22 21:04N 34°36' E 135°22'0 0.0
2014-Nov-22 20:28N 34°36' E 135°22'0 0.0
2014-Nov-22 18:32N 34°36' E 135°22'9 9.6
2014-Nov-22 17:33N 34°29' E 135°14'9 9.1
2014-Nov-22 16:33N 34°23' E 135°06'9 8.3
2014-Nov-22 15:29N 34°16' E 134°59'8 8.9
2014-Nov-22 14:33N 34°08' E 135°01'243 8.3
2014-Nov-21 09:23N 35°12' E 139°45'910.3
2014-Nov-21 08:33N 35°20' E 139°42'9 9.4
2014-Nov-21 07:33N 35°28' E 139°49'14 9.6
2014-Nov-21 06:04N 35°33' E 140°05'9 2.0
2014-Nov-21 01:33N 35°29' E 139°55'10 9.9
2014-Nov-21 00:33N 35°23' E 139°46'12 9.1
2014-Nov-20 23:14N 35°11' E 139°47'244 7.8
2014-Nov-19 16:07N 34°12' E 134°59'712.0
2014-Nov-19 15:31N 34°20' E 134°59'1111.2
2014-Nov-19 14:32N 34°30' E 135°02'7 7.4
2014-Nov-19 13:32N 34°36' E 134°56'  
2014-Nov-15 08:21N 34°35' E 134°52'810.1
2014-Nov-15 07:33N 34°37' E 135°02'1010.1
2014-Nov-15 06:33N 34°34' E 135°14'9 1.5
2014-Nov-15 00:06N 34°32' E 135°25'4 6.6
2014-Nov-14 23:30N 34°31' E 135°20'0 0.1
2014-Nov-14 22:29N 34°31' E 135°20'0 0.0
2014-Nov-14 21:29N 34°31' E 135°20'0 0.0
2014-Nov-14 20:17N 34°31' E 135°20'0 0.0
2014-Nov-14 19:17N 34°31' E 135°20'0 0.0
2014-Nov-14 18:23N 34°31' E 135°20'0 0.0
2014-Nov-14 17:29N 34°31' E 135°20'0 0.0
2014-Nov-14 16:29N 34°31' E 135°20'0 0.0
2014-Nov-14 15:23N 34°31' E 135°20'0 0.0
2014-Nov-14 14:23N 34°31' E 135°20'0 0.0
2014-Nov-14 12:32N 34°31' E 135°20'0 0.0
2014-Nov-14 11:29N 34°31' E 135°20'0 0.0
2014-Nov-14 10:29N 34°31' E 135°20'0 0.0
2014-Nov-14 09:29N 34°31' E 135°20'0 0.0
2014-Nov-14 08:17N 34°31' E 135°20'0 0.0
2014-Nov-14 07:32N 34°31' E 135°20'0 0.0
2014-Nov-14 06:26N 34°31' E 135°20'0 0.0
2014-Nov-14 05:32N 34°31' E 135°20'0 0.0
2014-Nov-14 04:20N 34°31' E 135°20'0 0.0
2014-Nov-14 03:29N 34°31' E 135°20'1 1.6
2014-Nov-14 02:33N 34°30' E 135°18'1210.6
2014-Nov-14 01:26N 34°23' E 135°08'910.7
2014-Nov-14 00:33N 34°14' E 135°03'1010.1
2014-Nov-13 23:31N 34°04' E 135°03'  
Track history (hours):
 
Tides and Currents Weather Stations Pressure Air Temp Water Temp Dewpoint Dewpoint Depression Visibility Wind Speed Wind Dir Waves Ship Positions

Nissho Maru No.18

Last reported at 2014-Nov-23 06:32 UTC. Time now 2014-Nov-23 14:41 UTC.
Position N 34°12' E 134°59'.

Length 65 m; draft 4 m.

Type: Tanker. MMSI: 431500465.

Date/timePositionNaut miles runAvg speedWind from/ knotsBaromVisibWave heightAir tempDewpointWater temp
2014-Nov-23 06:32N 34°12' E 134°59'1111.2
2014-Nov-23 05:32N 34°23' E 135°02'1111.2
2014-Nov-23 04:33N 34°30' E 135°12'1010.4
2014-Nov-23 03:33N 34°36' E 135°22'3 3.3
2014-Nov-23 02:33N 34°34' E 135°26'0 0.0
2014-Nov-23 01:33N 34°34' E 135°26'0 0.0
2014-Nov-23 00:33N 34°34' E 135°26'0 0.0
2014-Nov-22 23:33N 34°34' E 135°26'3 3.0
2014-Nov-22 22:32N 34°36' E 135°23'1 0.3
2014-Nov-22 21:04N 34°36' E 135°22'0 0.0
2014-Nov-22 20:28N 34°36' E 135°22'0 0.0
2014-Nov-22 18:32N 34°36' E 135°22'9 9.6
2014-Nov-22 17:33N 34°29' E 135°14'9 9.1
2014-Nov-22 16:33N 34°23' E 135°06'9 8.3
2014-Nov-22 15:29N 34°16' E 134°59'8 8.9
2014-Nov-22 14:33N 34°08' E 135°01'243 8.3
2014-Nov-21 09:23N 35°12' E 139°45'910.3
2014-Nov-21 08:33N 35°20' E 139°42'9 9.4
2014-Nov-21 07:33N 35°28' E 139°49'14 9.6
2014-Nov-21 06:04N 35°33' E 140°05'9 2.0
2014-Nov-21 01:33N 35°29' E 139°55'10 9.9
2014-Nov-21 00:33N 35°23' E 139°46'12 9.1
2014-Nov-20 23:14N 35°11' E 139°47'244 7.8
2014-Nov-19 16:07N 34°12' E 134°59'712.0
2014-Nov-19 15:31N 34°20' E 134°59'1111.2
2014-Nov-19 14:32N 34°30' E 135°02'7 7.4
2014-Nov-19 13:32N 34°36' E 134°56'  
2014-Nov-15 08:21N 34°35' E 134°52'810.1
2014-Nov-15 07:33N 34°37' E 135°02'1010.1
2014-Nov-15 06:33N 34°34' E 135°14'9 1.5
2014-Nov-15 00:06N 34°32' E 135°25'4 6.6
2014-Nov-14 23:30N 34°31' E 135°20'0 0.1
2014-Nov-14 22:29N 34°31' E 135°20'0 0.0
2014-Nov-14 21:29N 34°31' E 135°20'0 0.0
2014-Nov-14 20:17N 34°31' E 135°20'0 0.0
2014-Nov-14 19:17N 34°31' E 135°20'0 0.0
2014-Nov-14 18:23N 34°31' E 135°20'0 0.0
2014-Nov-14 17:29N 34°31' E 135°20'0 0.0
2014-Nov-14 16:29N 34°31' E 135°20'0 0.0
2014-Nov-14 15:23N 34°31' E 135°20'0 0.0
2014-Nov-14 14:23N 34°31' E 135°20'0 0.0
2014-Nov-14 12:32N 34°31' E 135°20'0 0.0
2014-Nov-14 11:29N 34°31' E 135°20'0 0.0
2014-Nov-14 10:29N 34°31' E 135°20'0 0.0
2014-Nov-14 09:29N 34°31' E 135°20'0 0.0
2014-Nov-14 08:17N 34°31' E 135°20'0 0.0
2014-Nov-14 07:32N 34°31' E 135°20'0 0.0
2014-Nov-14 06:26N 34°31' E 135°20'0 0.0
2014-Nov-14 05:32N 34°31' E 135°20'0 0.0
2014-Nov-14 04:20N 34°31' E 135°20'0 0.0
2014-Nov-14 03:29N 34°31' E 135°20'1 1.6
2014-Nov-14 02:33N 34°30' E 135°18'1210.6
2014-Nov-14 01:26N 34°23' E 135°08'910.7
2014-Nov-14 00:33N 34°14' E 135°03'1010.1
2014-Nov-13 23:31N 34°04' E 135°03'  

Dump ship's entire track history